KSAF/SAF METAR and TAF weather

Enter ICAO airport designator
Station Type Date Time Source
KSAF METAR 2021/05/14 22:53 UTC NOAA

KSAF 142253Z 24018G25KT 9SM FEW033 27/M09 A3003 RMK AO2 SLP078 T02671094


Station Type Date Time Source
KSAF Decoded METAR 2021/05/14 22:53 UTC NOAA

SANTA FE COUNTY MUNICIPAL, NM, United States (KSAF) 35-37N 106-05W 1930M
May 14, 2021 - 06:53 PM EDT / 2021.05.14 2253 UTC
Wind: from the WSW (240 degrees) at 21 MPH (18 KT) gusting to 29 MPH (25 KT):0
Visibility: 9 mile(s):0
Sky conditions: mostly clear
Temperature: 80.1 F (26.7 C)
Dew Point: 15.1 F (-9.4 C)
Relative Humidity: 8%
Pressure (altimeter): 30.03 in. Hg (1016 hPa)
ob: KSAF 142253Z 24018G25KT 9SM FEW033 27/M09 A3003 RMK AO2 SLP078 T02671094
cycle: 23

Station Type Date Time Source
KSAF TAF 2021/05/14 18:30 UTC NOAA

TAF KSAF 141728Z 1418/1518 23010KT P6SM FEW250
FM141900 23015G25KT P6SM FEW120
FM150200 18011KT P6SM FEW120
FM150600 14009KT P6SM SCT120
FM151700 28010KT P6SM FEW120

Example: see airport list